Waco Regional Airport
KACT : now visible

Airfield :











YOU CAN JOIN US ON...

 
LOGIN :

Register | Disclaimer

   EN    FR    IT 

 









Legend :    VFR   Marginal VFR   IFR   Intensive IFR   Very Intensive IFR
Visi :
Ceiling :
>= 8 km
>= 3000ft
5 to 8 km
1000 to 3000 ft
1500m to 5 km
500 to 1000 ft
800 to 1500m
200 to 500 ft
< 800m
< 200 ft
Symbols :   Thunderstorms  Fog  Heavy snow  Heavy precipitations  Wind > 20 kt






- Airport Elevation : 516 ft
- IATA code : ACT


KACT - Waco Regional

CURRENT METAR :
  • 240451Z 16007KT 10SM FEW023 19/18 A3002 RMK AO2 RAE0352 SLP160 P0000 T01890178

EXPIRED METARs :
  • 240351Z COR 15006KT 10SM SCT037 19/18 A3003 RMK AO2 RAB40 SLP164 P0000 T01940178
  • 240251Z 17010KT 10SM CLR 20/18 A3000 RMK AO2 SLP153 60000 T02000178 53015
  • 240151Z 17012KT 10SM FEW026 SCT037 21/18 A2997 RMK AO2 RAB03E14B38E48 SLP144 P0000 T02060178
  • 240051Z 17013KT 10SM OVC037 22/17 A2995 RMK AO2 RAB01E37 SLP138 P0000 T02170172

TAF KACT
Valid from the 24 at 03:00 until the 25 at 00:00 UTC


240250Z 2403/2424 17011KT P6SM SCT035
FM240700 18007KT P6SM BKN013
TEMPO 2412/2416 4SM BR OVC007
FM241900 16011KT P6SM OVC025
KZFW FIR / North America



MET'MAP, your aeronautical weather chart ! - Copyright ORBIFLY December 2007 - Disclaimer

ORBIFLY MET'MAP TEAM :

Programming & Development : Alexandra Zaïnal
Original concept : Baudouin d'Aumeries
Technical & hardware support : Manuel Goepfert
Assistance : Marc-Olivier Méhu




SOURCES & CREDITS :

   NOAA       Earth
Advisory